sensor_id;sensor_type;location;lat;lon;timestamp;pressure;altitude;pressure_sealevel;temperature;humidity
47670;BME280;33408;52.062;11.722;2022-09-03T00:00:04;101328.56;;;15.43;59.83
47670;BME280;33408;52.062;11.722;2022-09-03T00:02:37;101326.94;;;15.39;59.85
47670;BME280;33408;52.062;11.722;2022-09-03T00:05:11;101327.78;;;15.41;59.91
47670;BME280;33408;52.062;11.722;2022-09-03T00:07:44;101325.84;;;15.47;59.68
47670;BME280;33408;52.062;11.722;2022-09-03T00:10:17;101317.31;;;15.41;59.84
47670;BME280;33408;52.062;11.722;2022-09-03T00:12:46;101321.81;;;15.36;59.82
47670;BME280;33408;52.062;11.722;2022-09-03T00:15:17;101326.94;;;15.39;59.70
47670;BME280;33408;52.062;11.722;2022-09-03T00:17:47;101320.91;;;15.37;59.83
47670;BME280;33408;52.062;11.722;2022-09-03T00:20:19;101315.47;;;15.44;59.74
47670;BME280;33408;52.062;11.722;2022-09-03T00:22:49;101315.69;;;15.37;59.95
47670;BME280;33408;52.062;11.722;2022-09-03T00:25:18;101314.81;;;15.38;60.00
47670;BME280;33408;52.062;11.722;2022-09-03T00:27:50;101308.69;;;15.37;59.82
47670;BME280;33408;52.062;11.722;2022-09-03T00:30:20;101310.69;;;15.29;60.61
47670;BME280;33408;52.062;11.722;2022-09-03T00:32:51;101312.56;;;15.24;60.10
47670;BME280;33408;52.062;11.722;2022-09-03T00:35:24;101306.47;;;15.25;60.46
47670;BME280;33408;52.062;11.722;2022-09-03T00:37:51;101303.16;;;15.18;60.46
47670;BME280;33408;52.062;11.722;2022-09-03T00:40:32;101298.72;;;15.22;60.67
47670;BME280;33408;52.062;11.722;2022-09-03T00:43:08;101298.38;;;15.32;60.26
47670;BME280;33408;52.062;11.722;2022-09-03T00:45:44;101300.41;;;15.23;60.53
47670;BME280;33408;52.062;11.722;2022-09-03T00:48:18;101295.00;;;15.29;60.02
47670;BME280;33408;52.062;11.722;2022-09-03T00:51:01;101296.94;;;15.22;60.49
47670;BME280;33408;52.062;11.722;2022-09-03T00:53:35;101289.28;;;15.16;60.44
47670;BME280;33408;52.062;11.722;2022-09-03T00:56:12;101292.47;;;15.26;60.24
47670;BME280;33408;52.062;11.722;2022-09-03T00:58:54;101292.59;;;15.21;60.47
47670;BME280;33408;52.062;11.722;2022-09-03T01:01:27;101302.09;;;15.25;60.21
47670;BME280;33408;52.062;11.722;2022-09-03T01:04:02;101291.94;;;15.14;60.44
47670;BME280;33408;52.062;11.722;2022-09-03T01:06:41;101293.53;;;15.20;60.49
47670;BME280;33408;52.062;11.722;2022-09-03T01:09:24;101289.25;;;15.18;60.59
47670;BME280;33408;52.062;11.722;2022-09-03T01:12:00;101291.59;;;15.27;60.36
47670;BME280;33408;52.062;11.722;2022-09-03T01:14:43;101288.47;;;15.14;60.52
47670;BME280;33408;52.062;11.722;2022-09-03T01:17:22;101290.41;;;15.07;61.02
47670;BME280;33408;52.062;11.722;2022-09-03T01:20:09;101291.75;;;14.91;61.21
47670;BME280;33408;52.062;11.722;2022-09-03T01:22:59;101290.38;;;14.76;62.44
47670;BME280;33408;52.062;11.722;2022-09-03T01:25:39;101287.84;;;14.73;62.78
47670;BME280;33408;52.062;11.722;2022-09-03T01:31:05;101290.38;;;14.76;62.76
47670;BME280;33408;52.062;11.722;2022-09-03T01:33:39;101289.75;;;14.68;63.41
47670;BME280;33408;52.062;11.722;2022-09-03T01:36:13;101284.25;;;14.79;62.96
47670;BME280;33408;52.062;11.722;2022-09-03T01:38:49;101291.19;;;14.80;62.40
47670;BME280;33408;52.062;11.722;2022-09-03T01:41:26;101287.78;;;14.76;62.43
47670;BME280;33408;52.062;11.722;2022-09-03T01:44:21;101291.31;;;14.75;62.59
47670;BME280;33408;52.062;11.722;2022-09-03T01:47:01;101289.47;;;14.79;62.61
47670;BME280;33408;52.062;11.722;2022-09-03T01:49:38;101293.00;;;14.76;62.50
47670;BME280;33408;52.062;11.722;2022-09-03T01:52:12;101290.81;;;14.59;62.86
47670;BME280;33408;52.062;11.722;2022-09-03T01:54:49;101292.34;;;14.68;63.18
47670;BME280;33408;52.062;11.722;2022-09-03T01:57:23;101290.50;;;14.71;62.76
47670;BME280;33408;52.062;11.722;2022-09-03T01:59:58;101296.88;;;14.61;63.39
47670;BME280;33408;52.062;11.722;2022-09-03T02:02:28;101301.28;;;14.57;63.68
47670;BME280;33408;52.062;11.722;2022-09-03T02:04:57;101308.03;;;14.66;63.45
47670;BME280;33408;52.062;11.722;2022-09-03T02:07:29;101316.94;;;14.57;63.67
47670;BME280;33408;52.062;11.722;2022-09-03T02:09:58;101308.97;;;14.65;63.51
47670;BME280;33408;52.062;11.722;2022-09-03T02:12:25;101311.72;;;14.57;63.63
47670;BME280;33408;52.062;11.722;2022-09-03T02:14:59;101309.34;;;14.48;64.25
47670;BME280;33408;52.062;11.722;2022-09-03T02:17:28;101303.22;;;14.51;64.54
47670;BME280;33408;52.062;11.722;2022-09-03T02:19:55;101306.63;;;14.53;64.38
47670;BME280;33408;52.062;11.722;2022-09-03T02:22:22;101304.22;;;14.45;64.65
47670;BME280;33408;52.062;11.722;2022-09-03T02:24:49;101306.81;;;14.45;64.61
47670;BME280;33408;52.062;11.722;2022-09-03T02:27:16;101299.19;;;14.37;65.11
47670;BME280;33408;52.062;11.722;2022-09-03T02:29:43;101294.06;;;14.33;65.67
47670;BME280;33408;52.062;11.722;2022-09-03T02:32:12;101295.66;;;14.40;65.58
47670;BME280;33408;52.062;11.722;2022-09-03T02:34:39;101298.34;;;14.37;65.50
47670;BME280;33408;52.062;11.722;2022-09-03T02:37:11;101293.34;;;14.28;66.04
47670;BME280;33408;52.062;11.722;2022-09-03T02:39:38;101297.78;;;14.24;66.14
47670;BME280;33408;52.062;11.722;2022-09-03T02:42:05;101297.88;;;14.19;66.85
47670;BME280;33408;52.062;11.722;2022-09-03T02:44:34;101298.94;;;14.12;66.91
47670;BME280;33408;52.062;11.722;2022-09-03T02:47:04;101291.28;;;14.06;67.19
47670;BME280;33408;52.062;11.722;2022-09-03T02:49:32;101293.41;;;14.25;67.13
47670;BME280;33408;52.062;11.722;2022-09-03T02:52:01;101298.88;;;14.15;67.24
47670;BME280;33408;52.062;11.722;2022-09-03T02:54:30;101305.56;;;14.26;67.23
47670;BME280;33408;52.062;11.722;2022-09-03T02:56:57;101305.88;;;14.12;67.54
47670;BME280;33408;52.062;11.722;2022-09-03T02:59:24;101299.75;;;14.14;67.52
47670;BME280;33408;52.062;11.722;2022-09-03T03:01:52;101300.00;;;14.03;68.25
47670;BME280;33408;52.062;11.722;2022-09-03T03:04:19;101305.31;;;13.99;68.79
47670;BME280;33408;52.062;11.722;2022-09-03T03:06:47;101304.06;;;13.78;69.30
47670;BME280;33408;52.062;11.722;2022-09-03T03:09:15;101310.34;;;13.69;69.84
47670;BME280;33408;52.062;11.722;2022-09-03T03:11:41;101312.09;;;13.70;69.70
47670;BME280;33408;52.062;11.722;2022-09-03T03:14:08;101313.97;;;13.62;70.34
47670;BME280;33408;52.062;11.722;2022-09-03T03:16:35;101314.72;;;13.68;70.49
47670;BME280;33408;52.062;11.722;2022-09-03T03:19:02;101310.66;;;13.55;71.27
47670;BME280;33408;52.062;11.722;2022-09-03T03:21:29;101310.25;;;13.74;71.14
47670;BME280;33408;52.062;11.722;2022-09-03T03:23:57;101312.16;;;13.67;71.52
47670;BME280;33408;52.062;11.722;2022-09-03T03:26:23;101313.84;;;13.68;71.47
47670;BME280;33408;52.062;11.722;2022-09-03T03:28:55;101312.13;;;13.68;71.30
47670;BME280;33408;52.062;11.722;2022-09-03T03:31:23;101316.59;;;13.62;71.49
47670;BME280;33408;52.062;11.722;2022-09-03T03:33:50;101314.13;;;13.56;72.31
47670;BME280;33408;52.062;11.722;2022-09-03T03:36:17;101306.19;;;13.60;72.20
47670;BME280;33408;52.062;11.722;2022-09-03T03:38:44;101318.63;;;13.47;72.90
47670;BME280;33408;52.062;11.722;2022-09-03T03:41:14;101311.78;;;13.43;72.88
47670;BME280;33408;52.062;11.722;2022-09-03T03:43:41;101316.09;;;13.44;73.31
47670;BME280;33408;52.062;11.722;2022-09-03T03:46:08;101316.28;;;13.35;73.82
47670;BME280;33408;52.062;11.722;2022-09-03T03:48:35;101312.97;;;13.27;74.81
47670;BME280;33408;52.062;11.722;2022-09-03T03:51:03;101312.91;;;13.30;75.02
47670;BME280;33408;52.062;11.722;2022-09-03T03:53:31;101311.16;;;13.30;74.54
47670;BME280;33408;52.062;11.722;2022-09-03T03:56:00;101318.00;;;13.36;74.43
47670;BME280;33408;52.062;11.722;2022-09-03T03:58:29;101315.63;;;13.24;75.10
47670;BME280;33408;52.062;11.722;2022-09-03T04:01:03;101310.94;;;12.98;76.97
47670;BME280;33408;52.062;11.722;2022-09-03T04:03:30;101315.88;;;13.10;77.37
47670;BME280;33408;52.062;11.722;2022-09-03T04:05:58;101312.94;;;12.83;77.82
47670;BME280;33408;52.062;11.722;2022-09-03T04:08:25;101314.38;;;13.00;77.75
47670;BME280;33408;52.062;11.722;2022-09-03T04:10:52;101303.88;;;13.04;77.43
47670;BME280;33408;52.062;11.722;2022-09-03T04:13:18;101310.84;;;13.01;77.47
47670;BME280;33408;52.062;11.722;2022-09-03T04:15:47;101311.69;;;13.03;77.89
47670;BME280;33408;52.062;11.722;2022-09-03T04:18:13;101307.63;;;12.88;78.13
47670;BME280;33408;52.062;11.722;2022-09-03T04:20:40;101312.56;;;13.03;78.12
47670;BME280;33408;52.062;11.722;2022-09-03T04:23:06;101304.69;;;13.06;77.47
47670;BME280;33408;52.062;11.722;2022-09-03T04:25:33;101298.03;;;12.91;78.15
47670;BME280;33408;52.062;11.722;2022-09-03T04:27:59;101300.59;;;12.94;78.85
47670;BME280;33408;52.062;11.722;2022-09-03T04:30:29;101300.63;;;12.91;78.80
47670;BME280;33408;52.062;11.722;2022-09-03T04:32:56;101307.66;;;12.86;79.45
47670;BME280;33408;52.062;11.722;2022-09-03T04:35:25;101309.34;;;12.89;79.05
47670;BME280;33408;52.062;11.722;2022-09-03T04:37:53;101309.84;;;12.61;81.38
47670;BME280;33408;52.062;11.722;2022-09-03T04:40:20;101310.69;;;12.63;81.30
47670;BME280;33408;52.062;11.722;2022-09-03T04:42:47;101305.53;;;12.60;81.31
47670;BME280;33408;52.062;11.722;2022-09-03T04:45:14;101307.50;;;12.46;82.92
47670;BME280;33408;52.062;11.722;2022-09-03T04:47:43;101299.78;;;12.41;82.73
47670;BME280;33408;52.062;11.722;2022-09-03T04:50:12;101308.31;;;12.49;82.66
47670;BME280;33408;52.062;11.722;2022-09-03T04:52:38;101315.56;;;12.32;83.33
47670;BME280;33408;52.062;11.722;2022-09-03T04:55:06;101316.16;;;12.48;83.24
47670;BME280;33408;52.062;11.722;2022-09-03T04:57:35;101310.19;;;12.41;83.97
47670;BME280;33408;52.062;11.722;2022-09-03T05:00:03;101315.91;;;12.62;83.09
47670;BME280;33408;52.062;11.722;2022-09-03T05:02:30;101315.16;;;12.55;82.75
47670;BME280;33408;52.062;11.722;2022-09-03T05:04:56;101319.13;;;12.76;82.04
47670;BME280;33408;52.062;11.722;2022-09-03T05:07:24;101318.06;;;12.86;81.09
47670;BME280;33408;52.062;11.722;2022-09-03T05:10:03;101318.69;;;12.99;81.13
47670;BME280;33408;52.062;11.722;2022-09-03T05:12:30;101317.84;;;14.22;74.74
47670;BME280;33408;52.062;11.722;2022-09-03T05:14:57;101321.09;;;15.30;66.33
47670;BME280;33408;52.062;11.722;2022-09-03T05:17:25;101318.19;;;15.69;61.36
47670;BME280;33408;52.062;11.722;2022-09-03T05:19:52;101316.81;;;15.28;63.61
47670;BME280;33408;52.062;11.722;2022-09-03T05:22:18;101323.00;;;14.59;67.25
47670;BME280;33408;52.062;11.722;2022-09-03T05:24:47;101325.97;;;14.80;67.26
47670;BME280;33408;52.062;11.722;2022-09-03T05:27:14;101322.81;;;13.94;70.83
47670;BME280;33408;52.062;11.722;2022-09-03T05:29:41;101320.94;;;13.61;72.77
47670;BME280;33408;52.062;11.722;2022-09-03T05:32:07;101319.75;;;13.36;75.89
47670;BME280;33408;52.062;11.722;2022-09-03T05:34:34;101315.69;;;13.21;77.16
47670;BME280;33408;52.062;11.722;2022-09-03T05:37:00;101316.53;;;13.21;78.83
47670;BME280;33408;52.062;11.722;2022-09-03T05:39:27;101314.81;;;13.22;80.13
47670;BME280;33408;52.062;11.722;2022-09-03T05:41:55;101319.75;;;12.89;81.44
47670;BME280;33408;52.062;11.722;2022-09-03T05:44:21;101319.53;;;13.01;81.18
47670;BME280;33408;52.062;11.722;2022-09-03T05:46:48;101325.69;;;12.97;81.51
47670;BME280;33408;52.062;11.722;2022-09-03T05:49:16;101328.03;;;13.11;81.70
47670;BME280;33408;52.062;11.722;2022-09-03T05:51:42;101318.00;;;13.36;81.33
47670;BME280;33408;52.062;11.722;2022-09-03T05:54:10;101327.34;;;13.46;80.19
47670;BME280;33408;52.062;11.722;2022-09-03T05:56:38;101321.00;;;13.58;79.51
47670;BME280;33408;52.062;11.722;2022-09-03T05:59:08;101317.06;;;13.79;78.78
47670;BME280;33408;52.062;11.722;2022-09-03T06:01:36;101320.91;;;14.02;78.01
47670;BME280;33408;52.062;11.722;2022-09-03T06:04:05;101316.59;;;14.37;76.47
47670;BME280;33408;52.062;11.722;2022-09-03T06:06:33;101324.34;;;14.74;74.71
47670;BME280;33408;52.062;11.722;2022-09-03T06:09:02;101325.88;;;14.83;73.83
47670;BME280;33408;52.062;11.722;2022-09-03T06:11:30;101327.34;;;15.25;71.98
47670;BME280;33408;52.062;11.722;2022-09-03T06:13:58;101316.56;;;15.36;71.48
47670;BME280;33408;52.062;11.722;2022-09-03T06:16:29;101314.06;;;15.62;70.04
47670;BME280;33408;52.062;11.722;2022-09-03T06:18:56;101313.47;;;16.11;67.57
47670;BME280;33408;52.062;11.722;2022-09-03T06:21:23;101311.34;;;16.49;65.65
47670;BME280;33408;52.062;11.722;2022-09-03T06:23:51;101316.91;;;16.65;65.06
47670;BME280;33408;52.062;11.722;2022-09-03T06:26:18;101328.66;;;16.78;63.86
47670;BME280;33408;52.062;11.722;2022-09-03T06:28:45;101323.63;;;17.22;62.51
47670;BME280;33408;52.062;11.722;2022-09-03T06:31:14;101324.63;;;16.94;62.65
47670;BME280;33408;52.062;11.722;2022-09-03T06:33:42;101324.38;;;17.26;62.39
47670;BME280;33408;52.062;11.722;2022-09-03T06:36:11;101323.19;;;16.86;62.87
47670;BME280;33408;52.062;11.722;2022-09-03T06:38:38;101327.59;;;17.09;62.42
47670;BME280;33408;52.062;11.722;2022-09-03T06:41:07;101323.91;;;17.14;62.25
47670;BME280;33408;52.062;11.722;2022-09-03T06:43:36;101324.88;;;17.12;62.72
47670;BME280;33408;52.062;11.722;2022-09-03T06:46:05;101324.06;;;16.85;63.23
47670;BME280;33408;52.062;11.722;2022-09-03T06:48:33;101327.41;;;16.90;63.19
47670;BME280;33408;52.062;11.722;2022-09-03T06:51:03;101326.88;;;17.05;63.50
47670;BME280;33408;52.062;11.722;2022-09-03T06:53:32;101334.03;;;17.00;63.72
47670;BME280;33408;52.062;11.722;2022-09-03T06:56:01;101327.69;;;17.31;63.09
47670;BME280;33408;52.062;11.722;2022-09-03T06:58:28;101326.47;;;17.40;62.82
47670;BME280;33408;52.062;11.722;2022-09-03T07:01:00;101332.03;;;17.30;62.54
47670;BME280;33408;52.062;11.722;2022-09-03T07:03:28;101326.59;;;17.37;62.14
47670;BME280;33408;52.062;11.722;2022-09-03T07:06:00;101331.25;;;17.28;61.60
47670;BME280;33408;52.062;11.722;2022-09-03T07:08:27;101338.97;;;17.57;60.75
47670;BME280;33408;52.062;11.722;2022-09-03T07:10:57;101315.31;;;17.80;59.94
47670;BME280;33408;52.062;11.722;2022-09-03T07:13:24;101323.00;;;17.63;59.75
47670;BME280;33408;52.062;11.722;2022-09-03T07:15:57;101319.22;;;17.70;59.16
47670;BME280;33408;52.062;11.722;2022-09-03T07:18:24;101314.84;;;17.93;58.93
47670;BME280;33408;52.062;11.722;2022-09-03T07:20:51;101324.94;;;18.03;59.10
47670;BME280;33408;52.062;11.722;2022-09-03T07:23:18;101319.38;;;18.11;58.03
47670;BME280;33408;52.062;11.722;2022-09-03T07:25:51;101318.06;;;18.21;57.80
47670;BME280;33408;52.062;11.722;2022-09-03T07:28:18;101317.28;;;18.19;57.81
47670;BME280;33408;52.062;11.722;2022-09-03T07:30:45;101325.91;;;18.44;57.39
47670;BME280;33408;52.062;11.722;2022-09-03T07:33:11;101329.09;;;18.30;57.04
47670;BME280;33408;52.062;11.722;2022-09-03T07:35:38;101323.53;;;18.37;56.82
47670;BME280;33408;52.062;11.722;2022-09-03T07:38:04;101333.03;;;18.40;56.69
47670;BME280;33408;52.062;11.722;2022-09-03T07:40:33;101332.09;;;18.63;56.41
47670;BME280;33408;52.062;11.722;2022-09-03T07:43:00;101331.91;;;18.68;56.36
47670;BME280;33408;52.062;11.722;2022-09-03T07:45:29;101327.56;;;18.67;56.12
47670;BME280;33408;52.062;11.722;2022-09-03T07:47:56;101324.88;;;19.09;55.41
47670;BME280;33408;52.062;11.722;2022-09-03T07:50:23;101331.22;;;19.04;55.30
47670;BME280;33408;52.062;11.722;2022-09-03T07:52:55;101321.31;;;19.29;54.84
47670;BME280;33408;52.062;11.722;2022-09-03T07:55:21;101321.78;;;19.00;55.17
47670;BME280;33408;52.062;11.722;2022-09-03T07:57:54;101325.28;;;19.38;54.89
47670;BME280;33408;52.062;11.722;2022-09-03T08:00:21;101315.31;;;19.46;54.12
47670;BME280;33408;52.062;11.722;2022-09-03T08:02:47;101324.09;;;19.45;53.74
47670;BME280;33408;52.062;11.722;2022-09-03T08:05:14;101314.63;;;19.60;53.47
47670;BME280;33408;52.062;11.722;2022-09-03T08:07:43;101310.31;;;19.78;52.99
47670;BME280;33408;52.062;11.722;2022-09-03T08:10:09;101319.41;;;19.90;53.09
47670;BME280;33408;52.062;11.722;2022-09-03T08:12:37;101317.97;;;19.64;52.87
47670;BME280;33408;52.062;11.722;2022-09-03T08:15:06;101327.13;;;19.76;53.05
47670;BME280;33408;52.062;11.722;2022-09-03T08:17:33;101322.03;;;19.71;53.34
47670;BME280;33408;52.062;11.722;2022-09-03T08:20:00;101318.56;;;19.71;53.21
47670;BME280;33408;52.062;11.722;2022-09-03T08:22:27;101319.03;;;20.15;52.22
47670;BME280;33408;52.062;11.722;2022-09-03T08:24:54;101324.22;;;19.99;51.31
47670;BME280;33408;52.062;11.722;2022-09-03T08:27:20;101317.44;;;20.13;50.79
47670;BME280;33408;52.062;11.722;2022-09-03T08:29:49;101310.38;;;20.13;50.36
47670;BME280;33408;52.062;11.722;2022-09-03T08:32:17;101319.34;;;19.92;50.57
47670;BME280;33408;52.062;11.722;2022-09-03T08:34:44;101317.72;;;20.07;50.27
47670;BME280;33408;52.062;11.722;2022-09-03T08:37:11;101309.00;;;20.06;50.20
47670;BME280;33408;52.062;11.722;2022-09-03T08:39:37;101311.63;;;20.06;49.91
47670;BME280;33408;52.062;11.722;2022-09-03T09:05:44;101302.19;;;21.55;46.39
47670;BME280;33408;52.062;11.722;2022-09-03T09:08:19;101294.41;;;21.36;45.66
47670;BME280;33408;52.062;11.722;2022-09-03T09:10:54;101288.13;;;21.38;45.54
47670;BME280;33408;52.062;11.722;2022-09-03T09:13:28;101286.28;;;21.56;45.24
47670;BME280;33408;52.062;11.722;2022-09-03T09:16:02;101284.63;;;21.85;44.96
47670;BME280;33408;52.062;11.722;2022-09-03T09:18:42;101285.22;;;21.91;44.16
47670;BME280;33408;52.062;11.722;2022-09-03T09:21:19;101286.75;;;21.95;44.02
47670;BME280;33408;52.062;11.722;2022-09-03T09:23:49;101285.78;;;21.96;43.44
47670;BME280;33408;52.062;11.722;2022-09-03T09:26:19;101273.97;;;22.03;43.32
47670;BME280;33408;52.062;11.722;2022-09-03T09:28:51;101275.38;;;21.78;43.50
47670;BME280;33408;52.062;11.722;2022-09-03T09:31:19;101280.16;;;22.02;42.82
47670;BME280;33408;52.062;11.722;2022-09-03T09:33:46;101282.13;;;21.98;42.58
47670;BME280;33408;52.062;11.722;2022-09-03T09:36:16;101277.78;;;22.28;42.84
47670;BME280;33408;52.062;11.722;2022-09-03T09:38:44;101275.78;;;22.17;42.85
47670;BME280;33408;52.062;11.722;2022-09-03T09:41:14;101274.06;;;21.85;43.03
47670;BME280;33408;52.062;11.722;2022-09-03T09:43:41;101276.56;;;22.49;41.93
47670;BME280;33408;52.062;11.722;2022-09-03T09:46:11;101269.75;;;22.15;41.38
47670;BME280;33408;52.062;11.722;2022-09-03T09:48:46;101271.88;;;22.08;41.12
47670;BME280;33408;52.062;11.722;2022-09-03T09:51:20;101264.72;;;22.40;41.08
47670;BME280;33408;52.062;11.722;2022-09-03T09:53:47;101269.56;;;22.18;40.68
47670;BME280;33408;52.062;11.722;2022-09-03T09:56:21;101263.91;;;22.24;40.77
47670;BME280;33408;52.062;11.722;2022-09-03T09:58:48;101265.19;;;22.33;40.51
47670;BME280;33408;52.062;11.722;2022-09-03T10:01:20;101258.44;;;22.57;39.85
47670;BME280;33408;52.062;11.722;2022-09-03T10:03:51;101253.81;;;22.75;39.68
47670;BME280;33408;52.062;11.722;2022-09-03T10:06:22;101256.09;;;22.82;39.30
47670;BME280;33408;52.062;11.722;2022-09-03T10:09:08;101261.06;;;22.43;38.80
47670;BME280;33408;52.062;11.722;2022-09-03T10:11:37;101249.28;;;22.18;39.41
47670;BME280;33408;52.062;11.722;2022-09-03T10:14:10;101253.16;;;22.57;39.43
47670;BME280;33408;52.062;11.722;2022-09-03T10:16:40;101244.16;;;22.31;38.76
47670;BME280;33408;52.062;11.722;2022-09-03T10:19:16;101252.06;;;22.31;38.71
47670;BME280;33408;52.062;11.722;2022-09-03T10:21:50;101251.22;;;22.31;38.28
47670;BME280;33408;52.062;11.722;2022-09-03T10:24:37;101242.22;;;22.64;36.99
47670;BME280;33408;52.062;11.722;2022-09-03T10:27:07;101239.84;;;22.59;36.58
47670;BME280;33408;52.062;11.722;2022-09-03T10:29:37;101236.81;;;22.36;37.28
47670;BME280;33408;52.062;11.722;2022-09-03T10:32:26;101245.34;;;22.26;38.32
47670;BME280;33408;52.062;11.722;2022-09-03T10:35:03;101243.16;;;22.63;37.98
47670;BME280;33408;52.062;11.722;2022-09-03T10:37:37;101234.06;;;22.81;37.80
47670;BME280;33408;52.062;11.722;2022-09-03T10:40:18;101231.53;;;23.08;37.79
47670;BME280;33408;52.062;11.722;2022-09-03T10:43:08;101240.69;;;22.60;37.49
47670;BME280;33408;52.062;11.722;2022-09-03T10:45:46;101231.53;;;22.94;37.48
47670;BME280;33408;52.062;11.722;2022-09-03T10:48:33;101228.13;;;23.21;37.26
47670;BME280;33408;52.062;11.722;2022-09-03T10:51:05;101229.16;;;23.45;36.92
47670;BME280;33408;52.062;11.722;2022-09-03T10:53:54;101220.94;;;22.94;37.70
47670;BME280;33408;52.062;11.722;2022-09-03T10:56:31;101221.03;;;22.92;37.25
47670;BME280;33408;52.062;11.722;2022-09-03T10:59:10;101219.72;;;23.00;36.90
47670;BME280;33408;52.062;11.722;2022-09-03T11:01:51;101219.28;;;22.50;37.33
47670;BME280;33408;52.062;11.722;2022-09-03T11:04:29;101201.72;;;22.63;37.76
47670;BME280;33408;52.062;11.722;2022-09-03T11:07:02;101209.34;;;22.82;37.20
47670;BME280;33408;52.062;11.722;2022-09-03T11:09:36;101212.66;;;22.71;36.90
47670;BME280;33408;52.062;11.722;2022-09-03T11:12:07;101203.06;;;22.70;37.13
47670;BME280;33408;52.062;11.722;2022-09-03T11:14:37;101210.09;;;22.99;36.49
47670;BME280;33408;52.062;11.722;2022-09-03T11:17:09;101214.63;;;23.11;36.69
47670;BME280;33408;52.062;11.722;2022-09-03T11:19:40;101217.53;;;23.06;36.73
47670;BME280;33408;52.062;11.722;2022-09-03T11:22:13;101222.47;;;23.12;36.94
47670;BME280;33408;52.062;11.722;2022-09-03T11:24:46;101212.84;;;23.39;36.48
47670;BME280;33408;52.062;11.722;2022-09-03T11:27:25;101205.88;;;23.38;35.80
47670;BME280;33408;52.062;11.722;2022-09-03T11:30:00;101202.63;;;23.47;35.09
47670;BME280;33408;52.062;11.722;2022-09-03T11:32:39;101196.25;;;23.77;34.86
47670;BME280;33408;52.062;11.722;2022-09-03T11:35:16;101198.38;;;23.72;34.59
47670;BME280;33408;52.062;11.722;2022-09-03T11:37:52;101200.34;;;23.95;35.21
47670;BME280;33408;52.062;11.722;2022-09-03T11:40:28;101193.25;;;23.96;35.03
47670;BME280;33408;52.062;11.722;2022-09-03T11:43:06;101182.69;;;24.21;34.64
47670;BME280;33408;52.062;11.722;2022-09-03T11:45:35;101182.25;;;24.28;34.68
47670;BME280;33408;52.062;11.722;2022-09-03T11:48:16;101180.47;;;24.15;35.15
47670;BME280;33408;52.062;11.722;2022-09-03T11:50:51;101180.25;;;23.65;35.25
47670;BME280;33408;52.062;11.722;2022-09-03T11:53:23;101185.94;;;23.99;35.77
47670;BME280;33408;52.062;11.722;2022-09-03T11:55:55;101175.13;;;23.49;35.78
47670;BME280;33408;52.062;11.722;2022-09-03T11:58:27;101173.97;;;23.66;36.28
47670;BME280;33408;52.062;11.722;2022-09-03T12:00:54;101175.31;;;23.19;37.08
47670;BME280;33408;52.062;11.722;2022-09-03T12:03:25;101155.63;;;23.10;37.16
47670;BME280;33408;52.062;11.722;2022-09-03T12:06:06;101173.13;;;23.53;36.40
47670;BME280;33408;52.062;11.722;2022-09-03T12:08:52;101173.25;;;23.64;36.16
47670;BME280;33408;52.062;11.722;2022-09-03T12:11:40;101164.53;;;23.49;36.23
47670;BME280;33408;52.062;11.722;2022-09-03T12:14:18;101165.47;;;23.21;36.35
47670;BME280;33408;52.062;11.722;2022-09-03T12:19:41;101161.53;;;23.81;35.83
47670;BME280;33408;52.062;11.722;2022-09-03T12:22:15;101156.84;;;23.72;35.71
47670;BME280;33408;52.062;11.722;2022-09-03T12:24:42;101155.63;;;24.29;34.75
47670;BME280;33408;52.062;11.722;2022-09-03T12:27:14;101157.13;;;23.95;35.32
47670;BME280;33408;52.062;11.722;2022-09-03T12:29:50;101151.28;;;24.54;35.24
47670;BME280;33408;52.062;11.722;2022-09-03T12:32:25;101155.41;;;24.45;34.68
47670;BME280;33408;52.062;11.722;2022-09-03T12:34:52;101138.91;;;24.91;34.17
47670;BME280;33408;52.062;11.722;2022-09-03T12:37:21;101137.38;;;24.50;34.64
47670;BME280;33408;52.062;11.722;2022-09-03T12:39:52;101139.00;;;24.01;34.98
47670;BME280;33408;52.062;11.722;2022-09-03T12:42:26;101148.34;;;24.59;34.85
47670;BME280;33408;52.062;11.722;2022-09-03T12:44:54;101143.91;;;24.08;34.95
47670;BME280;33408;52.062;11.722;2022-09-03T12:47:22;101146.53;;;24.08;35.20
47670;BME280;33408;52.062;11.722;2022-09-03T12:49:50;101138.19;;;24.27;34.89
47670;BME280;33408;52.062;11.722;2022-09-03T12:52:20;101137.09;;;24.29;35.13
47670;BME280;33408;52.062;11.722;2022-09-03T12:54:54;101128.09;;;24.57;34.52
47670;BME280;33408;52.062;11.722;2022-09-03T12:57:26;101135.63;;;24.88;34.38
47670;BME280;33408;52.062;11.722;2022-09-03T12:59:57;101130.63;;;24.59;34.66
47670;BME280;33408;52.062;11.722;2022-09-03T13:02:31;101127.69;;;23.99;35.54
47670;BME280;33408;52.062;11.722;2022-09-03T13:05:02;101125.16;;;24.11;35.60
47670;BME280;33408;52.062;11.722;2022-09-03T13:07:32;101116.44;;;23.30;36.54
47670;BME280;33408;52.062;11.722;2022-09-03T13:10:02;101116.84;;;23.77;36.35
47670;BME280;33408;52.062;11.722;2022-09-03T13:12:42;101112.63;;;24.00;35.86
47670;BME280;33408;52.062;11.722;2022-09-03T13:15:16;101115.09;;;23.50;36.57
47670;BME280;33408;52.062;11.722;2022-09-03T13:18:05;101102.78;;;23.89;36.01
47670;BME280;33408;52.062;11.722;2022-09-03T13:20:41;101094.28;;;24.23;35.58
47670;BME280;33408;52.062;11.722;2022-09-03T13:23:23;101090.56;;;23.74;35.88
47670;BME280;33408;52.062;11.722;2022-09-03T13:26:04;101102.03;;;23.87;35.87
47670;BME280;33408;52.062;11.722;2022-09-03T13:28:47;101107.72;;;23.68;36.25